sensor_id;sensor_type;location;lat;lon;timestamp;P1;durP1;ratioP1;P2;durP2;ratioP2
19049;SDS011;9657;45.940;12.840;2022-09-09T00:01:14;2.80;;;1.85;;
19049;SDS011;9657;45.940;12.840;2022-09-09T00:03:53;2.17;;;1.77;;
19049;SDS011;9657;45.940;12.840;2022-09-09T00:06:24;2.25;;;1.30;;
19049;SDS011;9657;45.940;12.840;2022-09-09T00:08:59;2.75;;;1.70;;
19049;SDS011;9657;45.940;12.840;2022-09-09T00:11:33;1.50;;;1.17;;
19049;SDS011;9657;45.940;12.840;2022-09-09T00:14:08;3.75;;;1.70;;
19049;SDS011;9657;45.940;12.840;2022-09-09T00:16:43;2.67;;;1.50;;
19049;SDS011;9657;45.940;12.840;2022-09-09T00:19:18;2.10;;;1.60;;
19049;SDS011;9657;45.940;12.840;2022-09-09T00:21:49;2.97;;;1.40;;
19049;SDS011;9657;45.940;12.840;2022-09-09T00:24:27;3.50;;;1.55;;
19049;SDS011;9657;45.940;12.840;2022-09-09T00:27:01;1.98;;;1.42;;
19049;SDS011;9657;45.940;12.840;2022-09-09T00:29:33;3.90;;;1.80;;
19049;SDS011;9657;45.940;12.840;2022-09-09T00:32:11;1.73;;;1.30;;
19049;SDS011;9657;45.940;12.840;2022-09-09T00:34:46;1.33;;;1.23;;
19049;SDS011;9657;45.940;12.840;2022-09-09T00:37:17;2.80;;;1.40;;
19049;SDS011;9657;45.940;12.840;2022-09-09T00:39:46;1.48;;;1.30;;
19049;SDS011;9657;45.940;12.840;2022-09-09T00:42:18;2.10;;;1.50;;
19049;SDS011;9657;45.940;12.840;2022-09-09T00:44:56;2.25;;;1.25;;
19049;SDS011;9657;45.940;12.840;2022-09-09T00:47:34;1.67;;;1.20;;
19049;SDS011;9657;45.940;12.840;2022-09-09T00:50:10;1.67;;;1.58;;
19049;SDS011;9657;45.940;12.840;2022-09-09T00:52:59;3.03;;;1.70;;
19049;SDS011;9657;45.940;12.840;2022-09-09T00:55:38;2.33;;;1.90;;
19049;SDS011;9657;45.940;12.840;2022-09-09T00:58:12;1.73;;;1.38;;
19049;SDS011;9657;45.940;12.840;2022-09-09T01:03:19;2.65;;;1.48;;
19049;SDS011;9657;45.940;12.840;2022-09-09T01:05:54;2.30;;;1.42;;
19049;SDS011;9657;45.940;12.840;2022-09-09T01:11:45;1.70;;;1.60;;
19049;SDS011;9657;45.940;12.840;2022-09-09T01:14:22;2.05;;;1.58;;
19049;SDS011;9657;45.940;12.840;2022-09-09T01:16:59;2.17;;;1.75;;
19049;SDS011;9657;45.940;12.840;2022-09-09T01:19:33;2.60;;;1.73;;
19049;SDS011;9657;45.940;12.840;2022-09-09T01:22:12;3.28;;;1.40;;
19049;SDS011;9657;45.940;12.840;2022-09-09T01:25:01;2.55;;;1.40;;
19049;SDS011;9657;45.940;12.840;2022-09-09T01:27:49;3.75;;;1.63;;
19049;SDS011;9657;45.940;12.840;2022-09-09T01:30:19;2.55;;;1.30;;
19049;SDS011;9657;45.940;12.840;2022-09-09T01:32:49;2.75;;;1.45;;
19049;SDS011;9657;45.940;12.840;2022-09-09T01:35:20;1.73;;;1.48;;
19049;SDS011;9657;45.940;12.840;2022-09-09T01:37:54;1.45;;;1.35;;
19049;SDS011;9657;45.940;12.840;2022-09-09T01:40:21;1.80;;;1.52;;
19049;SDS011;9657;45.940;12.840;2022-09-09T01:42:50;5.75;;;2.33;;
19049;SDS011;9657;45.940;12.840;2022-09-09T01:45:17;2.00;;;1.48;;
19049;SDS011;9657;45.940;12.840;2022-09-09T01:47:44;4.55;;;1.50;;
19049;SDS011;9657;45.940;12.840;2022-09-09T01:50:12;1.75;;;1.45;;
19049;SDS011;9657;45.940;12.840;2022-09-09T01:52:42;2.33;;;1.50;;
19049;SDS011;9657;45.940;12.840;2022-09-09T01:55:11;2.88;;;1.60;;
19049;SDS011;9657;45.940;12.840;2022-09-09T01:57:39;2.40;;;1.75;;
19049;SDS011;9657;45.940;12.840;2022-09-09T02:00:14;1.95;;;1.60;;
19049;SDS011;9657;45.940;12.840;2022-09-09T02:02:44;2.47;;;1.70;;
19049;SDS011;9657;45.940;12.840;2022-09-09T02:05:22;1.88;;;1.60;;
19049;SDS011;9657;45.940;12.840;2022-09-09T02:07:59;1.80;;;1.50;;
19049;SDS011;9657;45.940;12.840;2022-09-09T02:10:32;4.22;;;1.77;;
19049;SDS011;9657;45.940;12.840;2022-09-09T02:13:08;2.70;;;1.63;;
19049;SDS011;9657;45.940;12.840;2022-09-09T02:15:40;3.35;;;2.00;;
19049;SDS011;9657;45.940;12.840;2022-09-09T02:18:11;1.90;;;1.63;;
19049;SDS011;9657;45.940;12.840;2022-09-09T02:20:41;2.95;;;1.80;;
19049;SDS011;9657;45.940;12.840;2022-09-09T02:23:10;2.30;;;1.75;;
19049;SDS011;9657;45.940;12.840;2022-09-09T02:25:39;2.35;;;1.60;;
19049;SDS011;9657;45.940;12.840;2022-09-09T02:28:08;3.15;;;1.70;;
19049;SDS011;9657;45.940;12.840;2022-09-09T02:30:37;1.88;;;1.50;;
19049;SDS011;9657;45.940;12.840;2022-09-09T02:33:09;2.17;;;1.95;;
19049;SDS011;9657;45.940;12.840;2022-09-09T02:35:38;3.28;;;1.77;;
19049;SDS011;9657;45.940;12.840;2022-09-09T02:38:07;3.10;;;1.92;;
19049;SDS011;9657;45.940;12.840;2022-09-09T02:40:37;2.40;;;1.73;;
19049;SDS011;9657;45.940;12.840;2022-09-09T02:43:04;2.53;;;2.13;;
19049;SDS011;9657;45.940;12.840;2022-09-09T02:45:31;3.08;;;2.05;;
19049;SDS011;9657;45.940;12.840;2022-09-09T02:48:09;3.13;;;1.80;;
19049;SDS011;9657;45.940;12.840;2022-09-09T02:50:42;2.05;;;1.85;;
19049;SDS011;9657;45.940;12.840;2022-09-09T02:53:17;2.80;;;2.00;;
19049;SDS011;9657;45.940;12.840;2022-09-09T02:55:46;3.53;;;2.13;;
19049;SDS011;9657;45.940;12.840;2022-09-09T02:58:15;2.42;;;2.10;;
19049;SDS011;9657;45.940;12.840;2022-09-09T03:00:45;3.10;;;1.67;;
19049;SDS011;9657;45.940;12.840;2022-09-09T03:03:15;2.50;;;2.00;;
19049;SDS011;9657;45.940;12.840;2022-09-09T03:05:43;2.72;;;2.13;;
19049;SDS011;9657;45.940;12.840;2022-09-09T03:08:10;2.58;;;2.22;;
19049;SDS011;9657;45.940;12.840;2022-09-09T03:10:38;2.28;;;1.90;;
19049;SDS011;9657;45.940;12.840;2022-09-09T03:13:05;3.28;;;2.05;;
19049;SDS011;9657;45.940;12.840;2022-09-09T03:15:33;3.88;;;2.40;;
19049;SDS011;9657;45.940;12.840;2022-09-09T03:18:00;2.83;;;2.13;;
19049;SDS011;9657;45.940;12.840;2022-09-09T03:20:29;2.05;;;1.67;;
19049;SDS011;9657;45.940;12.840;2022-09-09T03:22:57;2.50;;;2.15;;
19049;SDS011;9657;45.940;12.840;2022-09-09T03:25:26;2.17;;;1.95;;
19049;SDS011;9657;45.940;12.840;2022-09-09T03:27:54;4.40;;;2.25;;
19049;SDS011;9657;45.940;12.840;2022-09-09T03:30:21;2.65;;;1.67;;
19049;SDS011;9657;45.940;12.840;2022-09-09T03:32:49;3.95;;;2.38;;
19049;SDS011;9657;45.940;12.840;2022-09-09T03:35:16;2.78;;;1.70;;
19049;SDS011;9657;45.940;12.840;2022-09-09T03:37:44;2.25;;;2.05;;
19049;SDS011;9657;45.940;12.840;2022-09-09T03:40:12;2.47;;;2.15;;
19049;SDS011;9657;45.940;12.840;2022-09-09T03:42:39;2.55;;;1.88;;
19049;SDS011;9657;45.940;12.840;2022-09-09T03:45:07;2.30;;;2.10;;
19049;SDS011;9657;45.940;12.840;2022-09-09T03:47:35;2.60;;;2.13;;
19049;SDS011;9657;45.940;12.840;2022-09-09T03:50:03;3.40;;;2.15;;
19049;SDS011;9657;45.940;12.840;2022-09-09T03:52:34;3.20;;;1.90;;
19049;SDS011;9657;45.940;12.840;2022-09-09T03:55:03;2.20;;;2.00;;
19049;SDS011;9657;45.940;12.840;2022-09-09T03:57:31;2.22;;;2.00;;
19049;SDS011;9657;45.940;12.840;2022-09-09T04:00:00;3.25;;;2.20;;
19049;SDS011;9657;45.940;12.840;2022-09-09T04:02:28;4.45;;;2.38;;
19049;SDS011;9657;45.940;12.840;2022-09-09T04:04:55;2.53;;;2.00;;
19049;SDS011;9657;45.940;12.840;2022-09-09T04:07:22;5.05;;;2.05;;
19049;SDS011;9657;45.940;12.840;2022-09-09T04:09:49;3.40;;;2.20;;
19049;SDS011;9657;45.940;12.840;2022-09-09T04:12:17;1.80;;;1.70;;
19049;SDS011;9657;45.940;12.840;2022-09-09T04:14:44;2.50;;;2.25;;
19049;SDS011;9657;45.940;12.840;2022-09-09T04:17:11;2.70;;;1.98;;
19049;SDS011;9657;45.940;12.840;2022-09-09T04:19:39;2.30;;;1.65;;
19049;SDS011;9657;45.940;12.840;2022-09-09T04:22:07;2.35;;;1.95;;
19049;SDS011;9657;45.940;12.840;2022-09-09T04:24:34;2.70;;;2.03;;
19049;SDS011;9657;45.940;12.840;2022-09-09T04:27:01;1.80;;;1.70;;
19049;SDS011;9657;45.940;12.840;2022-09-09T04:29:30;2.15;;;1.85;;
19049;SDS011;9657;45.940;12.840;2022-09-09T04:31:57;2.20;;;1.60;;
19049;SDS011;9657;45.940;12.840;2022-09-09T04:34:24;3.10;;;2.00;;
19049;SDS011;9657;45.940;12.840;2022-09-09T04:36:51;2.00;;;1.85;;
19049;SDS011;9657;45.940;12.840;2022-09-09T04:39:18;3.22;;;1.90;;
19049;SDS011;9657;45.940;12.840;2022-09-09T04:41:46;2.72;;;1.77;;
19049;SDS011;9657;45.940;12.840;2022-09-09T04:44:13;2.85;;;1.90;;
19049;SDS011;9657;45.940;12.840;2022-09-09T04:46:42;2.47;;;2.15;;
19049;SDS011;9657;45.940;12.840;2022-09-09T04:49:10;2.42;;;1.77;;
19049;SDS011;9657;45.940;12.840;2022-09-09T04:51:37;2.50;;;2.00;;
19049;SDS011;9657;45.940;12.840;2022-09-09T04:54:04;4.25;;;2.10;;
19049;SDS011;9657;45.940;12.840;2022-09-09T04:56:32;3.65;;;2.20;;
19049;SDS011;9657;45.940;12.840;2022-09-09T04:58:59;2.97;;;1.80;;
19049;SDS011;9657;45.940;12.840;2022-09-09T05:01:27;2.58;;;1.70;;
19049;SDS011;9657;45.940;12.840;2022-09-09T05:03:56;3.03;;;2.20;;
19049;SDS011;9657;45.940;12.840;2022-09-09T05:06:23;3.83;;;2.20;;
19049;SDS011;9657;45.940;12.840;2022-09-09T05:08:50;2.38;;;1.67;;
19049;SDS011;9657;45.940;12.840;2022-09-09T05:11:18;3.55;;;2.13;;
19049;SDS011;9657;45.940;12.840;2022-09-09T05:13:47;2.53;;;1.70;;
19049;SDS011;9657;45.940;12.840;2022-09-09T05:16:15;2.40;;;1.98;;
19049;SDS011;9657;45.940;12.840;2022-09-09T05:18:42;2.10;;;1.90;;
19049;SDS011;9657;45.940;12.840;2022-09-09T05:21:13;2.67;;;1.85;;
19049;SDS011;9657;45.940;12.840;2022-09-09T05:23:41;1.63;;;1.52;;
19049;SDS011;9657;45.940;12.840;2022-09-09T05:26:09;2.53;;;1.63;;
19049;SDS011;9657;45.940;12.840;2022-09-09T05:28:39;3.05;;;1.98;;
19049;SDS011;9657;45.940;12.840;2022-09-09T05:31:07;1.73;;;1.60;;
19049;SDS011;9657;45.940;12.840;2022-09-09T05:33:36;1.88;;;1.67;;
19049;SDS011;9657;45.940;12.840;2022-09-09T05:36:06;2.67;;;1.92;;
19049;SDS011;9657;45.940;12.840;2022-09-09T05:38:37;1.65;;;1.50;;
19049;SDS011;9657;45.940;12.840;2022-09-09T05:41:04;2.90;;;1.90;;
19049;SDS011;9657;45.940;12.840;2022-09-09T05:43:32;2.20;;;2.00;;
19049;SDS011;9657;45.940;12.840;2022-09-09T05:46:01;3.13;;;2.00;;
19049;SDS011;9657;45.940;12.840;2022-09-09T05:48:29;1.98;;;1.75;;
19049;SDS011;9657;45.940;12.840;2022-09-09T05:50:57;2.30;;;1.73;;
19049;SDS011;9657;45.940;12.840;2022-09-09T05:53:25;2.00;;;1.80;;
19049;SDS011;9657;45.940;12.840;2022-09-09T05:55:59;1.60;;;1.50;;
19049;SDS011;9657;45.940;12.840;2022-09-09T05:58:28;2.25;;;1.88;;
19049;SDS011;9657;45.940;12.840;2022-09-09T06:01:02;2.67;;;1.90;;
19049;SDS011;9657;45.940;12.840;2022-09-09T06:03:30;1.58;;;1.48;;
19049;SDS011;9657;45.940;12.840;2022-09-09T06:05:58;2.63;;;1.75;;
19049;SDS011;9657;45.940;12.840;2022-09-09T06:08:26;5.20;;;2.17;;
19049;SDS011;9657;45.940;12.840;2022-09-09T06:11:00;2.10;;;1.90;;
19049;SDS011;9657;45.940;12.840;2022-09-09T06:13:29;2.47;;;1.70;;
19049;SDS011;9657;45.940;12.840;2022-09-09T06:15:56;2.15;;;1.95;;
19049;SDS011;9657;45.940;12.840;2022-09-09T06:18:24;3.75;;;1.98;;
19049;SDS011;9657;45.940;12.840;2022-09-09T06:20:55;2.70;;;1.75;;
19049;SDS011;9657;45.940;12.840;2022-09-09T06:23:23;5.75;;;1.90;;
19049;SDS011;9657;45.940;12.840;2022-09-09T06:25:50;2.78;;;1.52;;
19049;SDS011;9657;45.940;12.840;2022-09-09T06:28:19;5.22;;;1.83;;
19049;SDS011;9657;45.940;12.840;2022-09-09T06:30:46;2.95;;;1.85;;
19049;SDS011;9657;45.940;12.840;2022-09-09T06:33:13;2.03;;;1.67;;
19049;SDS011;9657;45.940;12.840;2022-09-09T06:35:40;2.00;;;1.63;;
19049;SDS011;9657;45.940;12.840;2022-09-09T06:38:08;2.63;;;1.50;;
19049;SDS011;9657;45.940;12.840;2022-09-09T06:40:35;1.95;;;1.73;;
19049;SDS011;9657;45.940;12.840;2022-09-09T06:43:02;3.30;;;1.50;;
19049;SDS011;9657;45.940;12.840;2022-09-09T06:45:31;2.75;;;1.80;;
19049;SDS011;9657;45.940;12.840;2022-09-09T06:48:01;1.67;;;1.42;;
19049;SDS011;9657;45.940;12.840;2022-09-09T06:50:28;1.50;;;1.40;;
19049;SDS011;9657;45.940;12.840;2022-09-09T06:52:55;2.15;;;1.58;;
19049;SDS011;9657;45.940;12.840;2022-09-09T06:55:23;1.98;;;1.50;;
19049;SDS011;9657;45.940;12.840;2022-09-09T06:57:50;1.85;;;1.52;;
19049;SDS011;9657;45.940;12.840;2022-09-09T07:00:17;3.03;;;1.40;;
19049;SDS011;9657;45.940;12.840;2022-09-09T07:02:45;1.40;;;1.30;;
19049;SDS011;9657;45.940;12.840;2022-09-09T07:05:13;4.78;;;1.50;;
19049;SDS011;9657;45.940;12.840;2022-09-09T07:07:41;1.58;;;1.33;;
19049;SDS011;9657;45.940;12.840;2022-09-09T07:10:08;2.35;;;1.30;;
19049;SDS011;9657;45.940;12.840;2022-09-09T07:12:35;2.78;;;1.42;;
19049;SDS011;9657;45.940;12.840;2022-09-09T07:15:02;4.63;;;1.92;;
19049;SDS011;9657;45.940;12.840;2022-09-09T07:17:30;4.28;;;1.83;;
19049;SDS011;9657;45.940;12.840;2022-09-09T07:19:59;1.88;;;1.60;;
19049;SDS011;9657;45.940;12.840;2022-09-09T07:22:27;4.95;;;1.80;;
19049;SDS011;9657;45.940;12.840;2022-09-09T07:24:54;2.40;;;1.83;;
19049;SDS011;9657;45.940;12.840;2022-09-09T07:27:21;3.38;;;1.35;;
19049;SDS011;9657;45.940;12.840;2022-09-09T07:29:48;2.63;;;1.77;;
19049;SDS011;9657;45.940;12.840;2022-09-09T07:32:15;3.58;;;1.92;;
19049;SDS011;9657;45.940;12.840;2022-09-09T07:34:44;2.83;;;1.60;;
19049;SDS011;9657;45.940;12.840;2022-09-09T07:37:13;2.38;;;1.73;;
19049;SDS011;9657;45.940;12.840;2022-09-09T07:39:41;3.60;;;1.70;;
19049;SDS011;9657;45.940;12.840;2022-09-09T07:42:08;4.03;;;1.77;;
19049;SDS011;9657;45.940;12.840;2022-09-09T07:44:36;2.28;;;2.03;;
19049;SDS011;9657;45.940;12.840;2022-09-09T07:47:05;4.07;;;2.35;;
19049;SDS011;9657;45.940;12.840;2022-09-09T07:49:32;5.30;;;2.33;;
19049;SDS011;9657;45.940;12.840;2022-09-09T07:51:59;4.25;;;2.80;;
19049;SDS011;9657;45.940;12.840;2022-09-09T07:54:28;3.65;;;1.98;;
19049;SDS011;9657;45.940;12.840;2022-09-09T07:56:55;3.53;;;2.42;;
19049;SDS011;9657;45.940;12.840;2022-09-09T07:59:22;3.97;;;2.28;;
19049;SDS011;9657;45.940;12.840;2022-09-09T08:01:50;3.85;;;2.35;;
19049;SDS011;9657;45.940;12.840;2022-09-09T08:04:18;3.28;;;2.28;;
19049;SDS011;9657;45.940;12.840;2022-09-09T08:06:47;3.42;;;1.90;;
19049;SDS011;9657;45.940;12.840;2022-09-09T08:09:15;3.28;;;2.00;;
19049;SDS011;9657;45.940;12.840;2022-09-09T08:11:44;2.95;;;2.15;;
19049;SDS011;9657;45.940;12.840;2022-09-09T08:14:12;4.70;;;2.10;;
19049;SDS011;9657;45.940;12.840;2022-09-09T08:16:40;2.22;;;2.00;;
19049;SDS011;9657;45.940;12.840;2022-09-09T08:19:08;2.83;;;2.03;;
19049;SDS011;9657;45.940;12.840;2022-09-09T08:21:36;6.78;;;2.60;;
19049;SDS011;9657;45.940;12.840;2022-09-09T08:24:05;3.50;;;2.20;;
19049;SDS011;9657;45.940;12.840;2022-09-09T08:26:34;2.90;;;1.90;;
19049;SDS011;9657;45.940;12.840;2022-09-09T08:29:04;3.83;;;2.58;;
19049;SDS011;9657;45.940;12.840;2022-09-09T08:31:33;2.95;;;2.15;;
19049;SDS011;9657;45.940;12.840;2022-09-09T08:34:02;2.95;;;1.90;;
19049;SDS011;9657;45.940;12.840;2022-09-09T08:36:30;2.75;;;1.80;;
19049;SDS011;9657;45.940;12.840;2022-09-09T08:38:59;3.92;;;2.00;;
19049;SDS011;9657;45.940;12.840;2022-09-09T08:41:33;2.72;;;1.70;;
19049;SDS011;9657;45.940;12.840;2022-09-09T08:44:09;3.97;;;2.22;;
19049;SDS011;9657;45.940;12.840;2022-09-09T08:46:42;4.15;;;2.25;;
19049;SDS011;9657;45.940;12.840;2022-09-09T08:49:26;2.00;;;1.77;;
19049;SDS011;9657;45.940;12.840;2022-09-09T08:52:06;2.03;;;1.83;;
19049;SDS011;9657;45.940;12.840;2022-09-09T08:54:41;2.67;;;2.20;;
19049;SDS011;9657;45.940;12.840;2022-09-09T08:57:09;3.88;;;2.35;;
19049;SDS011;9657;45.940;12.840;2022-09-09T08:59:42;2.72;;;2.05;;
19049;SDS011;9657;45.940;12.840;2022-09-09T09:02:12;2.08;;;1.80;;
19049;SDS011;9657;45.940;12.840;2022-09-09T09:04:49;2.63;;;2.00;;
19049;SDS011;9657;45.940;12.840;2022-09-09T09:07:35;2.88;;;2.22;;
19049;SDS011;9657;45.940;12.840;2022-09-09T09:10:15;3.60;;;2.00;;
19049;SDS011;9657;45.940;12.840;2022-09-09T09:12:50;2.47;;;2.00;;
19049;SDS011;9657;45.940;12.840;2022-09-09T09:15:21;3.75;;;1.80;;
19049;SDS011;9657;45.940;12.840;2022-09-09T09:17:50;3.78;;;2.13;;
19049;SDS011;9657;45.940;12.840;2022-09-09T09:20:18;2.50;;;2.17;;
19049;SDS011;9657;45.940;12.840;2022-09-09T09:22:52;2.50;;;1.77;;
19049;SDS011;9657;45.940;12.840;2022-09-09T09:25:24;2.92;;;2.10;;
19049;SDS011;9657;45.940;12.840;2022-09-09T09:27:58;2.28;;;2.08;;
19049;SDS011;9657;45.940;12.840;2022-09-09T09:30:28;1.98;;;1.83;;
19049;SDS011;9657;45.940;12.840;2022-09-09T09:33:01;4.32;;;2.40;;
19049;SDS011;9657;45.940;12.840;2022-09-09T09:35:32;2.53;;;2.10;;
19049;SDS011;9657;45.940;12.840;2022-09-09T09:37:59;3.10;;;2.00;;
19049;SDS011;9657;45.940;12.840;2022-09-09T09:40:28;3.45;;;2.20;;
19049;SDS011;9657;45.940;12.840;2022-09-09T09:42:56;3.92;;;1.92;;
19049;SDS011;9657;45.940;12.840;2022-09-09T09:45:28;2.45;;;1.98;;
19049;SDS011;9657;45.940;12.840;2022-09-09T09:47:59;2.28;;;1.85;;
19049;SDS011;9657;45.940;12.840;2022-09-09T09:50:27;2.67;;;1.73;;
19049;SDS011;9657;45.940;12.840;2022-09-09T09:52:57;2.40;;;2.00;;
19049;SDS011;9657;45.940;12.840;2022-09-09T09:55:27;2.45;;;2.10;;
19049;SDS011;9657;45.940;12.840;2022-09-09T09:58:00;2.25;;;2.03;;
19049;SDS011;9657;45.940;12.840;2022-09-09T10:00:30;2.38;;;1.75;;
19049;SDS011;9657;45.940;12.840;2022-09-09T10:02:59;3.15;;;1.90;;
19049;SDS011;9657;45.940;12.840;2022-09-09T10:05:27;2.58;;;1.67;;
19049;SDS011;9657;45.940;12.840;2022-09-09T10:08:05;2.35;;;2.15;;
19049;SDS011;9657;45.940;12.840;2022-09-09T10:10:39;1.88;;;1.70;;
19049;SDS011;9657;45.940;12.840;2022-09-09T10:13:16;3.03;;;2.05;;
19049;SDS011;9657;45.940;12.840;2022-09-09T10:15:52;1.73;;;1.60;;
19049;SDS011;9657;45.940;12.840;2022-09-09T10:18:40;2.95;;;1.85;;
19049;SDS011;9657;45.940;12.840;2022-09-09T10:21:22;3.00;;;1.88;;
19049;SDS011;9657;45.940;12.840;2022-09-09T10:24:11;2.90;;;1.85;;
19049;SDS011;9657;45.940;12.840;2022-09-09T10:26:56;2.50;;;2.00;;
19049;SDS011;9657;45.940;12.840;2022-09-09T10:29:40;2.72;;;1.90;;
19049;SDS011;9657;45.940;12.840;2022-09-09T10:32:28;2.22;;;1.60;;
19049;SDS011;9657;45.940;12.840;2022-09-09T10:35:04;1.52;;;1.38;;
19049;SDS011;9657;45.940;12.840;2022-09-09T10:37:51;2.67;;;1.67;;
19049;SDS011;9657;45.940;12.840;2022-09-09T10:40:32;4.35;;;2.05;;
19049;SDS011;9657;45.940;12.840;2022-09-09T10:43:06;2.78;;;1.70;;
19049;SDS011;9657;45.940;12.840;2022-09-09T10:45:48;1.95;;;1.75;;
19049;SDS011;9657;45.940;12.840;2022-09-09T10:48:30;3.50;;;1.90;;
19049;SDS011;9657;45.940;12.840;2022-09-09T10:51:10;1.52;;;1.42;;
19049;SDS011;9657;45.940;12.840;2022-09-09T10:53:52;2.05;;;1.75;;
19049;SDS011;9657;45.940;12.840;2022-09-09T10:56:30;2.85;;;1.65;;
19049;SDS011;9657;45.940;12.840;2022-09-09T10:58:59;1.98;;;1.73;;
19049;SDS011;9657;45.940;12.840;2022-09-09T11:01:32;1.85;;;1.50;;
19049;SDS011;9657;45.940;12.840;2022-09-09T11:04:09;1.63;;;1.48;;
19049;SDS011;9657;45.940;12.840;2022-09-09T11:06:44;1.25;;;1.15;;
19049;SDS011;9657;45.940;12.840;2022-09-09T11:09:15;2.35;;;1.67;;
19049;SDS011;9657;45.940;12.840;2022-09-09T11:11:46;1.60;;;1.50;;
19049;SDS011;9657;45.940;12.840;2022-09-09T11:14:19;1.90;;;1.67;;
19049;SDS011;9657;45.940;12.840;2022-09-09T11:16:53;2.45;;;1.42;;
19049;SDS011;9657;45.940;12.840;2022-09-09T11:19:28;2.92;;;1.52;;
19049;SDS011;9657;45.940;12.840;2022-09-09T11:22:00;1.63;;;1.52;;
19049;SDS011;9657;45.940;12.840;2022-09-09T11:24:31;1.42;;;1.25;;
19049;SDS011;9657;45.940;12.840;2022-09-09T11:27:06;2.15;;;1.27;;
19049;SDS011;9657;45.940;12.840;2022-09-09T11:29:48;1.60;;;1.42;;
19049;SDS011;9657;45.940;12.840;2022-09-09T11:32:40;1.83;;;1.73;;
19049;SDS011;9657;45.940;12.840;2022-09-09T11:35:23;1.95;;;1.23;;
19049;SDS011;9657;45.940;12.840;2022-09-09T11:38:13;1.30;;;1.20;;
19049;SDS011;9657;45.940;12.840;2022-09-09T11:40:45;1.67;;;1.10;;
19049;SDS011;9657;45.940;12.840;2022-09-09T11:43:13;1.75;;;1.30;;
19049;SDS011;9657;45.940;12.840;2022-09-09T11:45:49;1.90;;;1.52;;
19049;SDS011;9657;45.940;12.840;2022-09-09T11:48:25;2.53;;;1.30;;
19049;SDS011;9657;45.940;12.840;2022-09-09T11:51:01;2.30;;;1.20;;
19049;SDS011;9657;45.940;12.840;2022-09-09T11:53:30;1.58;;;1.23;;
19049;SDS011;9657;45.940;12.840;2022-09-09T11:56:05;1.30;;;1.20;;
19049;SDS011;9657;45.940;12.840;2022-09-09T11:58:36;1.83;;;1.55;;
19049;SDS011;9657;45.940;12.840;2022-09-09T12:07:22;1.58;;;1.35;;
19049;SDS011;9657;45.940;12.840;2022-09-09T12:09:56;2.03;;;1.55;;
19049;SDS011;9657;45.940;12.840;2022-09-09T12:12:27;1.58;;;1.48;;
19049;SDS011;9657;45.940;12.840;2022-09-09T12:17:46;1.52;;;1.33;;
19049;SDS011;9657;45.940;12.840;2022-09-09T12:20:16;1.33;;;1.23;;
19049;SDS011;9657;45.940;12.840;2022-09-09T12:22:50;1.40;;;1.25;;
19049;SDS011;9657;45.940;12.840;2022-09-09T12:25:26;2.15;;;1.33;;
19049;SDS011;9657;45.940;12.840;2022-09-09T12:28:03;1.40;;;1.02;;
19049;SDS011;9657;45.940;12.840;2022-09-09T12:30:37;1.88;;;1.40;;
19049;SDS011;9657;45.940;12.840;2022-09-09T12:33:12;2.05;;;1.52;;
19049;SDS011;9657;45.940;12.840;2022-09-09T12:35:43;1.10;;;1.02;;
19049;SDS011;9657;45.940;12.840;2022-09-09T12:38:15;3.13;;;1.48;;
19049;SDS011;9657;45.940;12.840;2022-09-09T12:40:53;1.73;;;1.13;;
19049;SDS011;9657;45.940;12.840;2022-09-09T12:43:23;1.30;;;1.08;;
19049;SDS011;9657;45.940;12.840;2022-09-09T12:45:53;3.05;;;1.55;;
19049;SDS011;9657;45.940;12.840;2022-09-09T12:48:25;1.60;;;1.30;;
19049;SDS011;9657;45.940;12.840;2022-09-09T12:51:01;1.25;;;1.15;;
19049;SDS011;9657;45.940;12.840;2022-09-09T12:53:32;1.27;;;1.10;;
19049;SDS011;9657;45.940;12.840;2022-09-09T12:56:02;1.23;;;1.10;;
19049;SDS011;9657;45.940;12.840;2022-09-09T12:58:33;1.05;;;1.00;;
19049;SDS011;9657;45.940;12.840;2022-09-09T13:01:02;1.48;;;1.38;;
19049;SDS011;9657;45.940;12.840;2022-09-09T13:03:31;1.40;;;1.17;;
19049;SDS011;9657;45.940;12.840;2022-09-09T13:06:10;1.30;;;1.20;;
19049;SDS011;9657;45.940;12.840;2022-09-09T13:08:40;1.25;;;1.15;;
19049;SDS011;9657;45.940;12.840;2022-09-09T13:11:09;2.47;;;1.35;;
19049;SDS011;9657;45.940;12.840;2022-09-09T13:13:41;1.35;;;1.25;;
19049;SDS011;9657;45.940;12.840;2022-09-09T13:16:18;2.58;;;1.30;;
19049;SDS011;9657;45.940;12.840;2022-09-09T13:18:48;1.42;;;1.27;;
19049;SDS011;9657;45.940;12.840;2022-09-09T13:21:15;2.58;;;1.42;;
19049;SDS011;9657;45.940;12.840;2022-09-09T13:23:48;2.85;;;1.40;;
19049;SDS011;9657;45.940;12.840;2022-09-09T13:26:21;2.10;;;1.15;;
19049;SDS011;9657;45.940;12.840;2022-09-09T13:28:49;1.48;;;1.00;;
19049;SDS011;9657;45.940;12.840;2022-09-09T13:31:21;2.05;;;1.30;;
19049;SDS011;9657;45.940;12.840;2022-09-09T13:33:49;1.98;;;1.25;;
19049;SDS011;9657;45.940;12.840;2022-09-09T13:36:26;1.20;;;1.10;;
19049;SDS011;9657;45.940;12.840;2022-09-09T13:38:56;1.33;;;1.10;;
19049;SDS011;9657;45.940;12.840;2022-09-09T13:41:27;1.02;;;0.98;;
19049;SDS011;9657;45.940;12.840;2022-09-09T13:43:58;2.65;;;1.52;;
19049;SDS011;9657;45.940;12.840;2022-09-09T13:46:28;2.35;;;1.20;;
19049;SDS011;9657;45.940;12.840;2022-09-09T13:49:00;1.38;;;1.10;;
19049;SDS011;9657;45.940;12.840;2022-09-09T13:51:33;1.13;;;1.00;;
19049;SDS011;9657;45.940;12.840;2022-09-09T13:54:04;1.77;;;1.10;;
19049;SDS011;9657;45.940;12.840;2022-09-09T13:56:32;1.40;;;1.27;;
19049;SDS011;9657;45.940;12.840;2022-09-09T13:59:00;1.38;;;1.27;;
19049;SDS011;9657;45.940;12.840;2022-09-09T14:01:28;1.50;;;1.40;;
19049;SDS011;9657;45.940;12.840;2022-09-09T14:03:55;2.33;;;1.10;;
19049;SDS011;9657;45.940;12.840;2022-09-09T14:06:22;2.17;;;1.33;;
19049;SDS011;9657;45.940;12.840;2022-09-09T14:08:50;1.80;;;1.40;;
19049;SDS011;9657;45.940;12.840;2022-09-09T14:11:18;1.63;;;1.20;;
19049;SDS011;9657;45.940;12.840;2022-09-09T14:13:46;1.48;;;1.38;;
19049;SDS011;9657;45.940;12.840;2022-09-09T14:16:15;1.45;;;1.20;;
19049;SDS011;9657;45.940;12.840;2022-09-09T14:18:42;6.18;;;1.77;;
19049;SDS011;9657;45.940;12.840;2022-09-09T14:21:09;1.35;;;1.00;;
19049;SDS011;9657;45.940;12.840;2022-09-09T14:23:37;1.10;;;1.00;;
19049;SDS011;9657;45.940;12.840;2022-09-09T14:26:04;2.15;;;1.10;;
19049;SDS011;9657;45.940;12.840;2022-09-09T14:28:33;1.80;;;1.00;;
19049;SDS011;9657;45.940;12.840;2022-09-09T14:31:01;2.28;;;1.25;;
19049;SDS011;9657;45.940;12.840;2022-09-09T14:33:30;1.00;;;1.00;;
19049;SDS011;9657;45.940;12.840;2022-09-09T14:35:57;1.10;;;1.00;;
19049;SDS011;9657;45.940;12.840;2022-09-09T14:38:25;1.88;;;1.20;;
19049;SDS011;9657;45.940;12.840;2022-09-09T14:40:55;1.33;;;1.10;;
19049;SDS011;9657;45.940;12.840;2022-09-09T14:43:23;2.00;;;1.05;;
19049;SDS011;9657;45.940;12.840;2022-09-09T14:45:53;2.85;;;1.10;;
19049;SDS011;9657;45.940;12.840;2022-09-09T14:48:20;1.83;;;1.40;;
19049;SDS011;9657;45.940;12.840;2022-09-09T14:50:47;1.60;;;1.17;;
19049;SDS011;9657;45.940;12.840;2022-09-09T14:53:16;1.20;;;1.10;;
19049;SDS011;9657;45.940;12.840;2022-09-09T14:55:43;1.52;;;1.20;;
19049;SDS011;9657;45.940;12.840;2022-09-09T14:58:11;1.17;;;1.02;;
19049;SDS011;9657;45.940;12.840;2022-09-09T15:00:39;1.27;;;1.00;;
19049;SDS011;9657;45.940;12.840;2022-09-09T15:03:08;1.23;;;1.05;;
19049;SDS011;9657;45.940;12.840;2022-09-09T15:05:35;1.25;;;1.02;;
19049;SDS011;9657;45.940;12.840;2022-09-09T15:08:02;1.30;;;1.20;;
19049;SDS011;9657;45.940;12.840;2022-09-09T15:10:30;2.45;;;1.38;;
19049;SDS011;9657;45.940;12.840;2022-09-09T15:12:58;1.98;;;1.10;;
19049;SDS011;9657;45.940;12.840;2022-09-09T15:15:25;0.90;;;0.90;;
19049;SDS011;9657;45.940;12.840;2022-09-09T15:17:53;1.98;;;0.90;;
19049;SDS011;9657;45.940;12.840;2022-09-09T15:20:21;1.00;;;0.85;;
19049;SDS011;9657;45.940;12.840;2022-09-09T15:22:48;1.98;;;1.35;;
19049;SDS011;9657;45.940;12.840;2022-09-09T15:25:16;3.50;;;1.52;;